Time;durP1;ratioP1;P1;durP2;ratioP2;P2;SDS_P1;SDS_P2;PMS_P1;PMS_P2;Temp;Humidity;BMP_temperature;BMP_pressure;BME280_temperature;BME280_humidity;BME280_pressure;Samples;Min_cycle;Max_cycle;Signal;HPM_P1;HPM_P2
2023/08/26 00:01:16;;;;;;;13.07;10.33;;;;;;;;;;5065132;28;20267;-86
2023/08/26 00:03:42;;;;;;;10.30;9.30;;;;;;;;;;5064944;28;20188;-87
2023/08/26 00:06:08;;;;;;;10.97;9.73;;;;;;;;;;5049232;28;20216;-84
2023/08/26 00:08:34;;;;;;;10.53;9.43;;;;;;;;;;5047076;28;20184;-87
2023/08/26 00:11:00;;;;;;;10.23;9.23;;;;;;;;;;5068480;28;20341;-86
2023/08/26 00:13:26;;;;;;;10.83;9.23;;;;;;;;;;5065316;28;20205;-88
2023/08/26 00:15:52;;;;;;;9.20;8.30;;;;;;;;;;5061776;28;20258;-86
2023/08/26 00:18:18;;;;;;;8.93;8.13;;;;;;;;;;5058851;28;20200;-86
2023/08/26 00:20:44;;;;;;;11.17;9.00;;;;;;;;;;5071612;28;20738;-86
2023/08/26 00:23:10;;;;;;;8.20;7.47;;;;;;;;;;5051896;28;20222;-86
2023/08/26 00:25:36;;;;;;;9.53;7.27;;;;;;;;;;5069876;28;20176;-87
2023/08/26 00:28:03;;;;;;;8.93;8.13;;;;;;;;;;5062438;28;20212;-86
2023/08/26 00:30:29;;;;;;;8.70;8.00;;;;;;;;;;5064724;28;20176;-86
2023/08/26 00:32:55;;;;;;;7.47;6.87;;;;;;;;;;5062958;28;20185;-86
2023/08/26 00:35:21;;;;;;;8.97;6.33;;;;;;;;;;5052796;28;20628;-86
2023/08/26 00:37:47;;;;;;;8.93;7.13;;;;;;;;;;5069793;28;20551;-85
2023/08/26 00:40:13;;;;;;;7.80;7.10;;;;;;;;;;5070386;28;20550;-85
2023/08/26 00:42:39;;;;;;;7.80;7.10;;;;;;;;;;5066949;28;20235;-86
2023/08/26 00:45:06;;;;;;;7.83;7.13;;;;;;;;;;5068942;28;20759;-86
2023/08/26 00:47:32;;;;;;;10.47;7.50;;;;;;;;;;5061858;28;20180;-86
2023/08/26 00:49:58;;;;;;;9.43;7.70;;;;;;;;;;5067867;28;20180;-86
2023/08/26 00:52:25;;;;;;;7.23;6.40;;;;;;;;;;5059754;28;20187;-86
2023/08/26 00:54:51;;;;;;;7.80;7.03;;;;;;;;;;5070359;28;20612;-85
2023/08/26 00:57:17;;;;;;;8.43;7.53;;;;;;;;;;5070138;28;20196;-85
2023/08/26 00:59:43;;;;;;;7.43;6.73;;;;;;;;;;5066197;28;20182;-85
2023/08/26 01:02:09;;;;;;;7.27;6.67;;;;;;;;;;5065057;28;20224;-85
2023/08/26 01:04:36;;;;;;;8.33;7.50;;;;;;;;;;5070671;28;20202;-86
2023/08/26 01:07:04;;;;;;;7.63;6.87;;;;;;;;;;5066391;28;20191;-86
2023/08/26 01:09:30;;;;;;;7.87;7.17;;;;;;;;;;5059918;28;20207;-86
2023/08/26 01:12:02;;;;;;;6.83;6.23;;;;;;;;;;5065605;28;20691;-87
2023/08/26 01:14:32;;;;;;;8.20;7.40;;;;;;;;;;5064886;28;20565;-86
2023/08/26 01:16:59;;;;;;;7.40;6.60;;;;;;;;;;5063526;28;20531;-87
2023/08/26 01:19:34;;;;;;;6.67;6.00;;;;;;;;;;5046137;28;20709;-87
2023/08/26 01:22:06;;;;;;;6.67;5.97;;;;;;;;;;5057821;28;20643;-86
2023/08/26 01:24:32;;;;;;;7.40;6.70;;;;;;;;;;5059681;28;20314;-87
2023/08/26 01:26:58;;;;;;;4.97;4.57;;;;;;;;;;5060449;28;20179;-87
2023/08/26 01:29:25;;;;;;;6.23;5.63;;;;;;;;;;5065561;28;20623;-87
2023/08/26 01:32:10;;;;;;;8.00;5.97;;;;;;;;;;5063648;28;20282;-86
2023/08/26 01:34:38;;;;;;;6.73;6.03;;;;;;;;;;5062430;28;20181;-86
2023/08/26 01:37:04;;;;;;;6.43;5.83;;;;;;;;;;5063825;28;20192;-87
2023/08/26 01:39:30;;;;;;;6.70;5.67;;;;;;;;;;5061753;28;20195;-88
2023/08/26 01:41:58;;;;;;;6.97;6.37;;;;;;;;;;5066029;28;20538;-89
2023/08/26 01:44:24;;;;;;;7.23;6.40;;;;;;;;;;5070736;28;20762;-85
2023/08/26 01:46:50;;;;;;;7.77;5.60;;;;;;;;;;5047319;28;20231;-85
2023/08/26 01:49:17;;;;;;;5.93;5.43;;;;;;;;;;5070334;28;20622;-87
2023/08/26 01:51:43;;;;;;;7.73;5.43;;;;;;;;;;5070139;28;20188;-86
2023/08/26 01:54:09;;;;;;;6.23;5.17;;;;;;;;;;5069146;28;20632;-87
2023/08/26 01:56:36;;;;;;;8.43;4.20;;;;;;;;;;5071032;28;20191;-87
2023/08/26 01:59:02;;;;;;;4.90;3.77;;;;;;;;;;5070432;28;20188;-87
2023/08/26 02:01:29;;;;;;;4.63;4.10;;;;;;;;;;5069512;28;20658;-87
2023/08/26 02:03:55;;;;;;;3.53;3.20;;;;;;;;;;5070334;28;20186;-86
2023/08/26 02:06:21;;;;;;;4.00;3.43;;;;;;;;;;5063197;28;20187;-87
2023/08/26 02:08:47;;;;;;;3.80;3.30;;;;;;;;;;5067039;28;20187;-88
2023/08/26 02:11:14;;;;;;;5.43;2.80;;;;;;;;;;5070184;28;20297;-88
2023/08/26 02:13:40;;;;;;;2.67;2.43;;;;;;;;;;5066282;28;20194;-85
2023/08/26 02:16:07;;;;;;;5.30;2.90;;;;;;;;;;5069494;28;20179;-85
2023/08/26 02:18:33;;;;;;;4.43;2.70;;;;;;;;;;5069856;28;20175;-86
2023/08/26 02:20:59;;;;;;;3.03;2.73;;;;;;;;;;5067016;28;20210;-85
2023/08/26 02:23:25;;;;;;;3.57;2.70;;;;;;;;;;5066965;28;20189;-85
2023/08/26 02:25:51;;;;;;;2.90;2.63;;;;;;;;;;5070601;28;20171;-84
2023/08/26 02:28:17;;;;;;;3.70;3.10;;;;;;;;;;5067483;28;20670;-85
2023/08/26 02:30:43;;;;;;;5.67;3.13;;;;;;;;;;5067755;28;20184;-84
2023/08/26 02:33:09;;;;;;;3.43;2.57;;;;;;;;;;5066208;28;20193;-85
2023/08/26 02:35:36;;;;;;;5.70;2.97;;;;;;;;;;5070903;28;20745;-86
2023/08/26 02:38:02;;;;;;;3.97;2.77;;;;;;;;;;5065247;28;20195;-85
2023/08/26 02:40:28;;;;;;;3.87;2.70;;;;;;;;;;5067412;28;20214;-86
2023/08/26 02:42:54;;;;;;;4.37;3.13;;;;;;;;;;5067426;28;20224;-84
2023/08/26 02:45:20;;;;;;;3.57;3.27;;;;;;;;;;5055595;28;20244;-84
2023/08/26 02:47:46;;;;;;;5.90;2.73;;;;;;;;;;5070353;28;20243;-85
2023/08/26 02:50:12;;;;;;;4.27;2.90;;;;;;;;;;5068746;28;20184;-84
2023/08/26 02:52:38;;;;;;;4.43;2.93;;;;;;;;;;5068262;28;20705;-85
2023/08/26 02:55:05;;;;;;;3.33;2.70;;;;;;;;;;5067635;28;21089;-87
2023/08/26 02:57:31;;;;;;;3.93;2.80;;;;;;;;;;5068061;28;20244;-87
2023/08/26 02:59:57;;;;;;;3.33;3.00;;;;;;;;;;5065881;28;20276;-87
2023/08/26 03:02:24;;;;;;;2.90;2.60;;;;;;;;;;5061771;28;20225;-87
2023/08/26 03:04:51;;;;;;;2.40;2.20;;;;;;;;;;5066593;28;20179;-87
2023/08/26 03:07:17;;;;;;;2.53;2.33;;;;;;;;;;5065003;28;20177;-87
2023/08/26 03:09:43;;;;;;;3.03;2.40;;;;;;;;;;5069190;28;20177;-85
2023/08/26 03:12:09;;;;;;;2.80;2.60;;;;;;;;;;5068467;28;20561;-87
2023/08/26 03:14:35;;;;;;;2.40;2.20;;;;;;;;;;5071510;28;20507;-87
2023/08/26 03:17:01;;;;;;;4.40;4.00;;;;;;;;;;5070188;28;20228;-87
2023/08/26 03:19:27;;;;;;;3.20;2.27;;;;;;;;;;5068685;28;20203;-87
2023/08/26 03:21:53;;;;;;;3.13;2.10;;;;;;;;;;5067709;28;20197;-87
2023/08/26 03:24:19;;;;;;;2.40;2.20;;;;;;;;;;5067693;28;20181;-84
2023/08/26 03:26:45;;;;;;;2.97;2.07;;;;;;;;;;5069834;28;20196;-85
2023/08/26 03:29:12;;;;;;;2.20;1.97;;;;;;;;;;5060166;28;20201;-85
2023/08/26 03:31:38;;;;;;;4.33;4.03;;;;;;;;;;5063208;28;20184;-84
2023/08/26 03:34:04;;;;;;;4.00;2.13;;;;;;;;;;5062483;28;20651;-83
2023/08/26 03:36:30;;;;;;;2.60;2.40;;;;;;;;;;5068883;28;20212;-82
2023/08/26 03:38:56;;;;;;;3.00;2.27;;;;;;;;;;5062821;28;20201;-86
2023/08/26 03:41:22;;;;;;;3.50;3.20;;;;;;;;;;5063137;28;20585;-84
2023/08/26 03:43:49;;;;;;;2.20;2.00;;;;;;;;;;5065275;28;20173;-84
2023/08/26 03:46:15;;;;;;;2.00;1.90;;;;;;;;;;5063265;28;20184;-84
2023/08/26 03:48:41;;;;;;;2.17;1.93;;;;;;;;;;5064928;28;20543;-84
2023/08/26 03:51:07;;;;;;;2.77;2.00;;;;;;;;;;5063032;28;20640;-83
2023/08/26 03:53:33;;;;;;;2.27;2.10;;;;;;;;;;5065647;28;20618;-83
2023/08/26 03:56:01;;;;;;;2.30;2.20;;;;;;;;;;5060531;28;20257;-83
2023/08/26 03:58:27;;;;;;;4.83;2.00;;;;;;;;;;5064322;28;20196;-83
2023/08/26 04:01:04;;;;;;;2.40;1.80;;;;;;;;;;5067413;28;20178;-84
2023/08/26 04:03:30;;;;;;;2.50;2.20;;;;;;;;;;5060322;28;20246;-83
2023/08/26 04:06:00;;;;;;;2.70;2.20;;;;;;;;;;5039201;28;20276;-85
2023/08/26 04:08:26;;;;;;;3.17;2.37;;;;;;;;;;5066744;28;21079;-85
2023/08/26 04:10:56;;;;;;;2.58;2.10;;;;;;;;;;5048841;28;20425;-85
2023/08/26 04:13:24;;;;;;;2.20;2.10;;;;;;;;;;5064140;28;20188;-85
2023/08/26 04:15:53;;;;;;;2.57;2.10;;;;;;;;;;5064508;28;20681;-86
2023/08/26 04:18:19;;;;;;;2.77;2.03;;;;;;;;;;5062624;28;20223;-85
2023/08/26 04:20:45;;;;;;;2.20;2.00;;;;;;;;;;5065325;28;20932;-84
2023/08/26 04:23:11;;;;;;;2.50;2.30;;;;;;;;;;5062285;28;20310;-85
2023/08/26 04:25:37;;;;;;;4.23;2.33;;;;;;;;;;5067090;28;20265;-85
2023/08/26 04:28:04;;;;;;;3.63;2.67;;;;;;;;;;5059285;28;20749;-84
2023/08/26 04:30:30;;;;;;;2.40;2.13;;;;;;;;;;5044427;28;20731;-85
2023/08/26 04:32:56;;;;;;;2.43;2.23;;;;;;;;;;5066468;28;20201;-85
2023/08/26 04:35:22;;;;;;;2.83;2.30;;;;;;;;;;5062100;28;20603;-85
2023/08/26 04:37:48;;;;;;;3.53;2.20;;;;;;;;;;5065921;28;20178;-85
2023/08/26 04:40:14;;;;;;;3.73;2.40;;;;;;;;;;5046292;28;20193;-86
2023/08/26 04:42:40;;;;;;;2.50;2.30;;;;;;;;;;5049944;28;20231;-85
2023/08/26 04:45:07;;;;;;;2.60;2.40;;;;;;;;;;5045819;28;20201;-85
2023/08/26 04:47:33;;;;;;;2.27;2.10;;;;;;;;;;5063031;28;20166;-83
2023/08/26 04:49:59;;;;;;;6.03;3.23;;;;;;;;;;5064681;28;20184;-85
2023/08/26 04:52:25;;;;;;;3.30;2.47;;;;;;;;;;5064841;28;20176;-85
2023/08/26 04:54:51;;;;;;;2.57;2.37;;;;;;;;;;5067191;28;20200;-85
2023/08/26 04:57:17;;;;;;;2.53;2.40;;;;;;;;;;5063906;28;20185;-86
2023/08/26 04:59:44;;;;;;;4.33;2.67;;;;;;;;;;5067515;28;20181;-84
2023/08/26 05:02:10;;;;;;;2.90;2.70;;;;;;;;;;5066173;28;20236;-84
2023/08/26 05:04:38;;;;;;;2.97;2.30;;;;;;;;;;5067310;28;20196;-84
2023/08/26 05:07:05;;;;;;;5.00;2.60;;;;;;;;;;5061354;28;20239;-85
2023/08/26 05:09:31;;;;;;;3.30;2.53;;;;;;;;;;5063321;28;20615;-85
2023/08/26 05:11:57;;;;;;;2.30;2.00;;;;;;;;;;5067333;28;20187;-85
2023/08/26 05:14:23;;;;;;;5.97;2.27;;;;;;;;;;5065400;28;20190;-85
2023/08/26 05:16:49;;;;;;;2.87;2.20;;;;;;;;;;5064109;28;20189;-85
2023/08/26 05:19:16;;;;;;;3.70;2.50;;;;;;;;;;5067071;28;20498;-85
2023/08/26 05:21:42;;;;;;;2.40;2.20;;;;;;;;;;5064425;28;20227;-84
2023/08/26 05:24:08;;;;;;;2.47;2.27;;;;;;;;;;5066216;28;20173;-85
2023/08/26 05:26:34;;;;;;;4.03;2.60;;;;;;;;;;5069900;28;20187;-84
2023/08/26 05:29:00;;;;;;;3.20;2.90;;;;;;;;;;5066838;28;20594;-84
2023/08/26 05:31:27;;;;;;;4.40;2.77;;;;;;;;;;5067006;28;20257;-85
2023/08/26 05:33:53;;;;;;;3.23;2.37;;;;;;;;;;5065605;28;20596;-85
2023/08/26 05:36:19;;;;;;;2.43;2.23;;;;;;;;;;5071210;28;20268;-84
2023/08/26 05:38:45;;;;;;;3.30;2.40;;;;;;;;;;5072046;28;20212;-85
2023/08/26 05:41:11;;;;;;;3.10;2.50;;;;;;;;;;5048009;28;20621;-86
2023/08/26 05:43:37;;;;;;;2.40;2.20;;;;;;;;;;5070204;28;20185;-85
2023/08/26 05:46:03;;;;;;;3.03;2.50;;;;;;;;;;5054669;28;20253;-87
2023/08/26 05:48:29;;;;;;;3.43;2.27;;;;;;;;;;5072629;28;20189;-87
2023/08/26 05:50:59;;;;;;;5.20;2.70;;;;;;;;;;5066325;28;20249;-87
2023/08/26 05:53:25;;;;;;;2.97;2.60;;;;;;;;;;5070073;28;20199;-87
2023/08/26 05:55:51;;;;;;;2.90;2.27;;;;;;;;;;5053847;28;20223;-86
2023/08/26 05:58:17;;;;;;;2.60;2.37;;;;;;;;;;5069001;28;20234;-86
2023/08/26 06:00:43;;;;;;;3.27;2.20;;;;;;;;;;5072240;28;20379;-86
2023/08/26 06:03:09;;;;;;;2.63;1.93;;;;;;;;;;5068073;28;20235;-87
2023/08/26 06:05:35;;;;;;;3.63;2.50;;;;;;;;;;5072148;28;20635;-84
2023/08/26 06:08:01;;;;;;;2.90;2.23;;;;;;;;;;5068281;28;20180;-86
2023/08/26 06:10:27;;;;;;;2.70;2.50;;;;;;;;;;5055137;28;20567;-86
2023/08/26 06:12:53;;;;;;;3.60;2.03;;;;;;;;;;5056823;28;20502;-85
2023/08/26 06:15:19;;;;;;;5.63;2.33;;;;;;;;;;5070161;28;20177;-84
2023/08/26 06:17:46;;;;;;;3.00;2.17;;;;;;;;;;5072809;28;20417;-83
2023/08/26 06:20:12;;;;;;;4.73;1.93;;;;;;;;;;5072511;28;20719;-83
2023/08/26 06:22:38;;;;;;;4.53;2.43;;;;;;;;;;5067184;28;20561;-83
2023/08/26 06:25:04;;;;;;;2.83;2.00;;;;;;;;;;5068289;28;20192;-81
2023/08/26 06:27:30;;;;;;;3.47;2.30;;;;;;;;;;5064530;28;20196;-84
2023/08/26 06:30:03;;;;;;;3.07;1.90;;;;;;;;;;5067934;28;20263;-82
2023/08/26 06:32:29;;;;;;;2.33;1.83;;;;;;;;;;5066968;28;20201;-82
2023/08/26 06:34:55;;;;;;;3.43;2.10;;;;;;;;;;5066486;28;20181;-86
2023/08/26 06:37:21;;;;;;;4.43;1.90;;;;;;;;;;5063867;28;20177;-84
2023/08/26 06:39:47;;;;;;;2.40;1.90;;;;;;;;;;5044225;28;20275;-84
2023/08/26 06:42:13;;;;;;;2.13;1.93;;;;;;;;;;5072923;28;20204;-84
2023/08/26 06:44:39;;;;;;;4.97;2.13;;;;;;;;;;5059713;28;20191;-87
2023/08/26 06:47:06;;;;;;;2.10;1.90;;;;;;;;;;5049136;28;20593;-87
2023/08/26 06:49:32;;;;;;;2.00;1.80;;;;;;;;;;5063023;28;20271;-84
2023/08/26 06:51:58;;;;;;;2.30;2.10;;;;;;;;;;5064876;28;20231;-87
2023/08/26 06:54:24;;;;;;;3.30;2.38;;;;;;;;;;5070508;28;20400;-89
2023/08/26 06:56:50;;;;;;;3.33;2.38;;;;;;;;;;5065262;28;20419;-89
2023/08/26 06:59:16;;;;;;;4.43;2.07;;;;;;;;;;5058365;28;20193;-87
2023/08/26 07:01:44;;;;;;;3.83;2.40;;;;;;;;;;5071210;28;20236;-92
2023/08/26 07:04:11;;;;;;;4.53;2.07;;;;;;;;;;5073803;28;20184;-89
2023/08/26 07:06:39;;;;;;;4.33;2.33;;;;;;;;;;5076226;28;20184;-90
2023/08/26 07:09:05;;;;;;;3.53;2.10;;;;;;;;;;5072523;28;20177;-90
2023/08/26 07:11:32;;;;;;;2.93;2.00;;;;;;;;;;5075890;28;20651;-91
2023/08/26 07:13:58;;;;;;;6.40;2.83;;;;;;;;;;5074875;28;20212;-88
2023/08/26 07:16:27;;;;;;;8.20;3.50;;;;;;;;;;5073599;28;20195;-90
2023/08/26 07:18:53;;;;;;;4.03;2.00;;;;;;;;;;5074967;28;20280;-85
2023/08/26 07:21:19;;;;;;;4.10;1.83;;;;;;;;;;5072296;28;20214;-91
2023/08/26 07:23:46;;;;;;;3.10;1.90;;;;;;;;;;5057625;28;20267;-89
2023/08/26 07:26:12;;;;;;;6.40;1.80;;;;;;;;;;5067982;28;20646;-89
2023/08/26 07:28:38;;;;;;;2.63;1.80;;;;;;;;;;5070856;28;20200;-89
2023/08/26 07:31:05;;;;;;;3.33;1.90;;;;;;;;;;5070159;28;20184;-89
2023/08/26 07:33:31;;;;;;;26.77;4.17;;;;;;;;;;5056049;28;20223;-92
2023/08/26 07:36:05;;;;;;;3.80;1.77;;;;;;;;;;5069637;28;20195;-92
2023/08/26 07:38:31;;;;;;;2.77;2.00;;;;;;;;;;5072196;28;20188;-91
2023/08/26 07:40:57;;;;;;;4.40;2.50;;;;;;;;;;5071666;28;20185;-89
2023/08/26 07:43:24;;;;;;;2.67;2.10;;;;;;;;;;5079993;28;20208;-90
2023/08/26 07:45:51;;;;;;;5.93;2.20;;;;;;;;;;5073209;28;20603;-90
2023/08/26 07:48:18;;;;;;;4.13;2.10;;;;;;;;;;5075116;28;20180;-88
2023/08/26 07:50:44;;;;;;;3.17;2.20;;;;;;;;;;5079870;28;20180;-89
2023/08/26 07:53:10;;;;;;;4.68;2.00;;;;;;;;;;5075826;28;20428;-90
2023/08/26 07:55:37;;;;;;;2.20;1.80;;;;;;;;;;5071361;28;20183;-90
2023/08/26 07:58:05;;;;;;;2.60;1.90;;;;;;;;;;5076106;28;20208;-90
2023/08/26 08:00:31;;;;;;;5.00;2.10;;;;;;;;;;5073415;28;20168;-88
2023/08/26 08:02:57;;;;;;;2.47;2.10;;;;;;;;;;5071781;28;20227;-89
2023/08/26 08:05:24;;;;;;;3.93;2.10;;;;;;;;;;5072429;28;20874;-83
2023/08/26 08:07:50;;;;;;;10.83;2.70;;;;;;;;;;5067380;28;20185;-82
2023/08/26 08:10:16;;;;;;;1.97;1.60;;;;;;;;;;5060423;28;20187;-80
2023/08/26 08:12:42;;;;;;;4.57;1.83;;;;;;;;;;5064457;28;20177;-80
2023/08/26 08:15:08;;;;;;;2.73;2.20;;;;;;;;;;5064112;28;20258;-82
2023/08/26 08:17:34;;;;;;;9.30;2.03;;;;;;;;;;5068354;28;20197;-82
2023/08/26 08:20:01;;;;;;;4.10;2.10;;;;;;;;;;5048508;28;20226;-80
2023/08/26 08:22:37;;;;;;;3.23;1.90;;;;;;;;;;5063786;28;20608;-80
2023/08/26 08:25:04;;;;;;;3.13;1.97;;;;;;;;;;5066653;28;20190;-80
2023/08/26 08:27:30;;;;;;;2.53;1.90;;;;;;;;;;5067578;28;20185;-80
2023/08/26 08:29:57;;;;;;;2.30;2.10;;;;;;;;;;5066907;28;20183;-86
2023/08/26 08:32:23;;;;;;;4.20;2.20;;;;;;;;;;5060952;28;20265;-80
2023/08/26 08:34:49;;;;;;;1.80;1.67;;;;;;;;;;5050068;28;20184;-81
2023/08/26 08:37:15;;;;;;;3.00;1.93;;;;;;;;;;5046480;28;20185;-84
2023/08/26 08:39:41;;;;;;;3.00;1.90;;;;;;;;;;5058896;28;20555;-81
2023/08/26 08:42:09;;;;;;;4.80;2.07;;;;;;;;;;5065202;28;20675;-80
2023/08/26 08:44:39;;;;;;;1.87;1.77;;;;;;;;;;5070388;28;20234;-79
2023/08/26 08:47:05;;;;;;;3.23;2.10;;;;;;;;;;5051273;28;20200;-81
2023/08/26 08:49:31;;;;;;;3.27;1.63;;;;;;;;;;5048104;28;20173;-80
2023/08/26 08:51:58;;;;;;;3.00;1.63;;;;;;;;;;5064484;28;20404;-81
2023/08/26 08:54:26;;;;;;;2.77;1.97;;;;;;;;;;5065144;28;20176;-83
2023/08/26 08:56:52;;;;;;;2.97;2.00;;;;;;;;;;5060654;28;20279;-82
2023/08/26 08:59:19;;;;;;;3.27;2.00;;;;;;;;;;5065048;28;20695;-80
2023/08/26 09:01:45;;;;;;;2.20;2.07;;;;;;;;;;5060467;28;20313;-82
2023/08/26 09:04:11;;;;;;;3.57;2.03;;;;;;;;;;5062790;28;20178;-82
2023/08/26 09:06:38;;;;;;;3.73;1.97;;;;;;;;;;5061552;28;20196;-81
2023/08/26 09:09:10;;;;;;;43.47;6.03;;;;;;;;;;5065164;28;20178;-80
2023/08/26 09:11:37;;;;;;;8.03;2.63;;;;;;;;;;5071032;28;20205;-85
2023/08/26 09:14:05;;;;;;;5.07;2.30;;;;;;;;;;5066044;28;20193;-80
2023/08/26 09:16:35;;;;;;;3.63;2.00;;;;;;;;;;5070678;28;20204;-87
2023/08/26 09:19:01;;;;;;;3.00;2.10;;;;;;;;;;5060084;28;20399;-87
2023/08/26 09:21:27;;;;;;;57.37;7.90;;;;;;;;;;5066427;28;20249;-88
2023/08/26 09:23:54;;;;;;;4.70;2.23;;;;;;;;;;5052289;28;20170;-88
2023/08/26 09:26:24;;;;;;;4.13;1.97;;;;;;;;;;5057402;28;20178;-88
2023/08/26 09:28:50;;;;;;;73.13;13.00;;;;;;;;;;5068806;28;20248;-89
2023/08/26 09:31:17;;;;;;;2.97;1.93;;;;;;;;;;5070018;28;20718;-87
2023/08/26 09:33:43;;;;;;;1.90;1.53;;;;;;;;;;5074913;28;20188;-88
2023/08/26 09:36:09;;;;;;;4.50;2.00;;;;;;;;;;5052075;28;20229;-87
2023/08/26 09:38:47;;;;;;;2.07;1.87;;;;;;;;;;5069014;28;20188;-87
2023/08/26 09:41:19;;;;;;;2.33;1.73;;;;;;;;;;5066967;28;20207;-88
2023/08/26 09:43:45;;;;;;;4.50;1.70;;;;;;;;;;5070360;28;20238;-87
2023/08/26 09:46:21;;;;;;;2.10;1.70;;;;;;;;;;5070424;28;20177;-87
2023/08/26 09:48:48;;;;;;;2.07;1.77;;;;;;;;;;5071660;28;20649;-86
2023/08/26 09:51:24;;;;;;;2.80;1.87;;;;;;;;;;5063250;28;20190;-87
2023/08/26 09:53:51;;;;;;;11.23;3.60;;;;;;;;;;5069762;28;20246;-85
2023/08/26 09:56:17;;;;;;;2.40;1.93;;;;;;;;;;5066870;28;20590;-81
2023/08/26 09:58:45;;;;;;;4.57;1.60;;;;;;;;;;5065708;28;20188;-79
2023/08/26 10:01:13;;;;;;;58.20;10.10;;;;;;;;;;5064343;28;21008;-83
2023/08/26 10:03:43;;;;;;;3.47;1.80;;;;;;;;;;5067707;28;20209;-80
2023/08/26 10:06:10;;;;;;;3.23;1.90;;;;;;;;;;5065870;28;20686;-80
2023/08/26 10:08:37;;;;;;;3.67;1.67;;;;;;;;;;5044025;28;20194;-82
2023/08/26 10:11:05;;;;;;;2.37;1.67;;;;;;;;;;5068648;28;20547;-82
2023/08/26 10:13:33;;;;;;;2.60;1.70;;;;;;;;;;5066495;28;20187;-80
2023/08/26 10:16:01;;;;;;;3.40;1.90;;;;;;;;;;5047353;28;20227;-80
2023/08/26 10:18:27;;;;;;;4.87;1.70;;;;;;;;;;5073838;28;20184;-80
2023/08/26 10:20:53;;;;;;;2.43;1.77;;;;;;;;;;5053376;28;20183;-80
2023/08/26 10:23:19;;;;;;;2.47;1.67;;;;;;;;;;5067514;28;20801;-81
2023/08/26 10:25:45;;;;;;;4.57;2.10;;;;;;;;;;5069142;28;20180;-85
2023/08/26 10:28:12;;;;;;;2.53;1.93;;;;;;;;;;5061645;28;20187;-83
2023/08/26 10:30:38;;;;;;;1.70;1.60;;;;;;;;;;5066682;28;20260;-80
2023/08/26 10:33:05;;;;;;;2.30;1.80;;;;;;;;;;5066635;28;20234;-80
2023/08/26 10:35:31;;;;;;;1.93;1.67;;;;;;;;;;5069281;28;20184;-79
2023/08/26 10:38:10;;;;;;;2.50;1.73;;;;;;;;;;5048667;28;20754;-80
2023/08/26 10:40:36;;;;;;;1.50;1.40;;;;;;;;;;5067623;28;20190;-80
2023/08/26 10:43:06;;;;;;;2.07;1.73;;;;;;;;;;5063993;28;20209;-79
2023/08/26 10:45:32;;;;;;;2.30;1.70;;;;;;;;;;5064679;28;20175;-79
2023/08/26 10:48:00;;;;;;;1.60;1.50;;;;;;;;;;5065610;28;20184;-82
2023/08/26 10:50:27;;;;;;;4.17;1.77;;;;;;;;;;5064633;28;20280;-81
2023/08/26 10:52:56;;;;;;;2.53;1.97;;;;;;;;;;5068446;28;20298;-85
2023/08/26 10:55:30;;;;;;;3.30;1.90;;;;;;;;;;5068756;28;20191;-88
2023/08/26 10:58:02;;;;;;;2.10;1.87;;;;;;;;;;5070656;28;20178;-87
2023/08/26 11:00:28;;;;;;;2.10;1.80;;;;;;;;;;5070590;28;20180;-89
2023/08/26 11:02:55;;;;;;;1.80;1.70;;;;;;;;;;5071436;28;20262;-87
2023/08/26 11:05:21;;;;;;;2.93;1.90;;;;;;;;;;5070426;28;20186;-90
2023/08/26 11:07:47;;;;;;;3.33;1.80;;;;;;;;;;5071378;28;20184;-83
2023/08/26 11:10:40;;;;;;;2.47;1.40;;;;;;;;;;5063924;28;20195;-80
2023/08/26 11:13:10;;;;;;;1.73;1.63;;;;;;;;;;5058307;28;20250;-82
2023/08/26 11:15:40;;;;;;;1.60;1.43;;;;;;;;;;5065315;28;20564;-81
2023/08/26 11:18:07;;;;;;;2.00;1.90;;;;;;;;;;5065050;28;20216;-81
2023/08/26 11:20:33;;;;;;;2.00;1.70;;;;;;;;;;5060269;28;20186;-81
2023/08/26 11:23:01;;;;;;;2.00;1.67;;;;;;;;;;5062346;28;20200;-83
2023/08/26 11:25:27;;;;;;;2.90;1.80;;;;;;;;;;5060712;28;20185;-85
2023/08/26 11:27:54;;;;;;;1.77;1.67;;;;;;;;;;5062246;28;20197;-83
2023/08/26 11:30:20;;;;;;;1.87;1.50;;;;;;;;;;5062094;28;20216;-80
2023/08/26 11:32:49;;;;;;;2.60;1.90;;;;;;;;;;5062520;28;20201;-82
2023/08/26 11:35:16;;;;;;;2.10;1.67;;;;;;;;;;5063824;28;20550;-81
2023/08/26 11:37:43;;;;;;;2.93;1.80;;;;;;;;;;5071259;28;20208;-86
2023/08/26 11:40:12;;;;;;;1.73;1.63;;;;;;;;;;5076360;28;20188;-87
2023/08/26 11:42:39;;;;;;;1.80;1.67;;;;;;;;;;5073344;28;20624;-85
2023/08/26 11:45:08;;;;;;;1.97;1.83;;;;;;;;;;5069723;28;20161;-84
2023/08/26 11:47:35;;;;;;;2.17;1.97;;;;;;;;;;5068527;28;20170;-84
2023/08/26 11:50:01;;;;;;;3.27;1.80;;;;;;;;;;5065874;28;20180;-83
2023/08/26 11:52:34;;;;;;;3.07;1.70;;;;;;;;;;5067840;28;20201;-81
2023/08/26 11:55:07;;;;;;;1.67;1.57;;;;;;;;;;5068513;28;20180;-83
2023/08/26 11:57:37;;;;;;;2.17;1.97;;;;;;;;;;5069583;28;20196;-83
2023/08/26 12:00:10;;;;;;;3.10;1.80;;;;;;;;;;5064657;28;20188;-83
2023/08/26 12:02:36;;;;;;;2.10;1.90;;;;;;;;;;5066624;28;20225;-83
2023/08/26 12:05:02;;;;;;;2.20;1.90;;;;;;;;;;5069665;28;20596;-82
2023/08/26 12:07:29;;;;;;;2.63;2.00;;;;;;;;;;5067493;28;20617;-83
2023/08/26 12:09:56;;;;;;;1.80;1.70;;;;;;;;;;5062867;28;20284;-83
2023/08/26 12:12:23;;;;;;;1.83;1.60;;;;;;;;;;5056924;28;20185;-83
2023/08/26 12:14:49;;;;;;;1.70;1.60;;;;;;;;;;5071700;28;20185;-82
2023/08/26 12:17:15;;;;;;;2.07;1.60;;;;;;;;;;5068402;28;20179;-78
2023/08/26 12:19:42;;;;;;;2.23;1.80;;;;;;;;;;5066469;28;20202;-79
2023/08/26 12:22:09;;;;;;;2.50;2.00;;;;;;;;;;5042366;28;21276;-80
2023/08/26 12:24:38;;;;;;;1.80;1.70;;;;;;;;;;5055943;28;20702;-81
2023/08/26 12:27:07;;;;;;;2.13;1.60;;;;;;;;;;5063700;28;20285;-82
2023/08/26 12:29:34;;;;;;;1.83;1.67;;;;;;;;;;5060612;28;20201;-81
2023/08/26 12:32:00;;;;;;;2.17;1.80;;;;;;;;;;5061968;28;20181;-80
2023/08/26 12:34:26;;;;;;;1.80;1.70;;;;;;;;;;5062615;28;20663;-82
2023/08/26 12:36:52;;;;;;;1.83;1.73;;;;;;;;;;5061986;28;20179;-80
2023/08/26 12:39:18;;;;;;;2.97;1.70;;;;;;;;;;5063439;28;20218;-81
2023/08/26 12:41:44;;;;;;;4.73;2.00;;;;;;;;;;5058855;28;20213;-80
2023/08/26 12:44:10;;;;;;;2.57;1.60;;;;;;;;;;5059725;28;20208;-85
2023/08/26 12:46:36;;;;;;;2.23;1.77;;;;;;;;;;5046839;28;20185;-84
2023/08/26 12:49:02;;;;;;;2.70;1.97;;;;;;;;;;5067155;28;20198;-86
2023/08/26 12:51:28;;;;;;;2.20;1.90;;;;;;;;;;5067268;28;20213;-85
2023/08/26 12:53:54;;;;;;;2.00;1.80;;;;;;;;;;5068709;28;20179;-87
2023/08/26 12:56:21;;;;;;;2.47;1.80;;;;;;;;;;5066600;28;20250;-83
2023/08/26 12:58:49;;;;;;;1.90;1.80;;;;;;;;;;5064233;28;20189;-85
2023/08/26 13:01:15;;;;;;;2.30;1.67;;;;;;;;;;5067458;28;20289;-86
2023/08/26 13:03:41;;;;;;;1.80;1.70;;;;;;;;;;5064671;28;20253;-83
2023/08/26 13:06:07;;;;;;;2.47;1.90;;;;;;;;;;5068456;28;20223;-84
2023/08/26 13:08:33;;;;;;;2.13;1.90;;;;;;;;;;5067155;28;20187;-87
2023/08/26 13:11:00;;;;;;;2.83;1.97;;;;;;;;;;5069813;28;20218;-84
2023/08/26 13:13:26;;;;;;;2.17;1.87;;;;;;;;;;5069661;28;20260;-83
2023/08/26 13:15:52;;;;;;;1.70;1.60;;;;;;;;;;5069302;28;20199;-84
2023/08/26 13:18:19;;;;;;;2.83;1.97;;;;;;;;;;5068748;28;20285;-83
2023/08/26 13:20:45;;;;;;;1.77;1.60;;;;;;;;;;5065140;28;20462;-85
2023/08/26 13:23:11;;;;;;;2.00;1.80;;;;;;;;;;5065455;28;20609;-84
2023/08/26 13:25:37;;;;;;;2.07;1.80;;;;;;;;;;5066330;28;20193;-84
2023/08/26 13:28:05;;;;;;;1.83;1.60;;;;;;;;;;5039941;28;20248;-82
2023/08/26 13:30:31;;;;;;;3.77;1.60;;;;;;;;;;5059830;28;20243;-83
2023/08/26 13:32:57;;;;;;;1.90;1.80;;;;;;;;;;5065385;28;20180;-86
2023/08/26 13:35:23;;;;;;;1.80;1.70;;;;;;;;;;5067438;28;20222;-85
2023/08/26 13:37:49;;;;;;;2.07;1.70;;;;;;;;;;5049859;28;20545;-85
2023/08/26 13:40:15;;;;;;;2.67;2.07;;;;;;;;;;5070207;28;20640;-85
2023/08/26 13:42:42;;;;;;;1.57;1.40;;;;;;;;;;5066807;28;20213;-86
2023/08/26 13:45:08;;;;;;;1.90;1.80;;;;;;;;;;5065015;28;20729;-85
2023/08/26 13:47:34;;;;;;;3.50;1.90;;;;;;;;;;5072362;28;20644;-84
2023/08/26 13:50:01;;;;;;;1.77;1.63;;;;;;;;;;5070331;28;20195;-86
2023/08/26 13:52:27;;;;;;;2.20;1.50;;;;;;;;;;5074249;28;20189;-88
2023/08/26 13:54:53;;;;;;;1.60;1.50;;;;;;;;;;5067130;28;20184;-85
2023/08/26 13:57:19;;;;;;;1.90;1.80;;;;;;;;;;5068466;28;20246;-83
2023/08/26 13:59:45;;;;;;;3.70;2.60;;;;;;;;;;5060685;28;20225;-84
2023/08/26 14:02:11;;;;;;;2.37;2.17;;;;;;;;;;5060479;28;20229;-82
2023/08/26 14:04:37;;;;;;;2.07;1.50;;;;;;;;;;5065125;28;20178;-87
2023/08/26 14:07:03;;;;;;;2.00;1.80;;;;;;;;;;5052409;28;20206;-85
2023/08/26 14:09:29;;;;;;;2.47;1.60;;;;;;;;;;5071863;28;20272;-86
2023/08/26 14:11:58;;;;;;;1.60;1.50;;;;;;;;;;5072694;28;20282;-87
2023/08/26 14:14:24;;;;;;;1.50;1.40;;;;;;;;;;5072296;28;20201;-85
2023/08/26 14:16:50;;;;;;;1.73;1.63;;;;;;;;;;5072406;28;20194;-88
2023/08/26 14:19:16;;;;;;;1.70;1.60;;;;;;;;;;5068323;28;20184;-86
2023/08/26 14:21:42;;;;;;;2.97;1.60;;;;;;;;;;5063706;28;20220;-87
2023/08/26 14:24:09;;;;;;;2.20;1.60;;;;;;;;;;5056970;28;20181;-87
2023/08/26 14:26:35;;;;;;;3.23;1.83;;;;;;;;;;5070912;28;20171;-87
2023/08/26 14:29:01;;;;;;;2.57;1.80;;;;;;;;;;5073148;28;20205;-87
2023/08/26 14:31:27;;;;;;;4.53;2.27;;;;;;;;;;5064608;28;20194;-87
2023/08/26 14:33:53;;;;;;;3.20;1.70;;;;;;;;;;5070721;28;20191;-85
2023/08/26 14:36:20;;;;;;;2.00;1.60;;;;;;;;;;5070271;28;20191;-87
2023/08/26 14:38:46;;;;;;;2.77;1.70;;;;;;;;;;5071084;28;20251;-86
2023/08/26 14:41:12;;;;;;;1.93;1.73;;;;;;;;;;5065466;28;20194;-86